createdAt,value
2022-09-01T00:02:20.078Z,101908.78
2022-09-01T00:04:47.350Z,101912.50
2022-09-01T00:07:14.981Z,101907.63
2022-09-01T00:09:41.856Z,101905.75
2022-09-01T00:12:09.884Z,101902.88
2022-09-01T00:14:41.580Z,101906.09
2022-09-01T00:17:10.737Z,101900.66
2022-09-01T00:19:37.922Z,101895.56
2022-09-01T00:22:05.426Z,101903.06
2022-09-01T00:24:32.410Z,101909.97
2022-09-01T00:26:59.333Z,101905.25
2022-09-01T00:29:26.422Z,101904.19
2022-09-01T00:31:53.542Z,101901.28
2022-09-01T00:34:20.712Z,101900.81
2022-09-01T00:36:48.132Z,101910.19
2022-09-01T00:39:15.398Z,101908.16
2022-09-01T00:41:44.936Z,101903.09
2022-09-01T00:44:15.502Z,101902.59
2022-09-01T00:46:49.860Z,101905.59
2022-09-01T00:49:41.573Z,101905.59
2022-09-01T00:52:15.753Z,101897.16
2022-09-01T00:54:50.595Z,101898.47
2022-09-01T00:57:17.652Z,101896.97
2022-09-01T00:59:49.988Z,101892.19
2022-09-01T01:02:16.786Z,101885.56
2022-09-01T01:04:43.841Z,101883.53
2022-09-01T01:07:11.270Z,101893.72
2022-09-01T01:09:43.842Z,101890.50
2022-09-01T01:12:17.430Z,101883.06
2022-09-01T01:14:51.756Z,101885.94
2022-09-01T01:17:21.122Z,101879.16
2022-09-01T01:20:10.451Z,101882.22
2022-09-01T01:23:02.999Z,101883.44
2022-09-01T01:25:34.666Z,101882.19
2022-09-01T01:28:18.677Z,101882.19
2022-09-01T01:30:52.527Z,101884.94
2022-09-01T01:33:25.218Z,101885.97
2022-09-01T01:35:56.261Z,101891.75
2022-09-01T01:38:24.030Z,101884.00
2022-09-01T01:40:53.773Z,101885.69
2022-09-01T01:43:21.818Z,101882.31
2022-09-01T01:45:52.164Z,101888.06
2022-09-01T01:48:23.020Z,101885.53
2022-09-01T01:50:51.117Z,101888.44
2022-09-01T01:53:19.352Z,101889.09
2022-09-01T01:55:50.000Z,101891.81
2022-09-01T01:58:21.650Z,101887.41
2022-09-01T02:00:50.700Z,101885.06
2022-09-01T02:03:22.057Z,101881.69
2022-09-01T02:05:52.341Z,101886.06
2022-09-01T02:08:22.788Z,101886.00
2022-09-01T02:10:52.196Z,101887.41
2022-09-01T02:13:25.225Z,101881.44
2022-09-01T02:15:55.976Z,101897.41
2022-09-01T02:18:27.081Z,101891.13
2022-09-01T02:20:55.177Z,101895.06
2022-09-01T02:23:25.812Z,101891.19
2022-09-01T02:28:44.132Z,101883.41
2022-09-01T02:31:12.070Z,101883.84
2022-09-01T02:33:40.470Z,101886.75
2022-09-01T02:36:14.251Z,101886.00
2022-09-01T02:38:46.048Z,101873.19
2022-09-01T02:41:14.436Z,101871.97
2022-09-01T02:43:46.190Z,101876.25
2022-09-01T02:46:14.787Z,101875.25
2022-09-01T02:48:45.927Z,101880.00
2022-09-01T02:51:18.524Z,101872.38
2022-09-01T02:53:49.753Z,101872.84
2022-09-01T02:56:18.218Z,101877.31
2022-09-01T02:58:46.191Z,101875.63
2022-09-01T03:01:24.795Z,101874.97
2022-09-01T03:03:55.434Z,101880.03
2022-09-01T03:06:24.462Z,101873.97
2022-09-01T03:08:53.502Z,101872.28
2022-09-01T03:11:20.511Z,101868.53
2022-09-01T03:13:47.264Z,101869.38
2022-09-01T03:16:14.080Z,101870.88
2022-09-01T03:18:40.866Z,101870.06
2022-09-01T03:21:08.629Z,101868.00
2022-09-01T03:23:36.837Z,101866.47
2022-09-01T03:26:04.000Z,101872.59
2022-09-01T03:28:30.733Z,101877.34
2022-09-01T03:30:58.621Z,101873.97
2022-09-01T03:33:27.223Z,101878.72
2022-09-01T03:35:54.642Z,101874.50
2022-09-01T03:38:22.101Z,101873.69
2022-09-01T03:40:54.554Z,101876.19
2022-09-01T03:43:24.874Z,101878.72
2022-09-01T03:45:51.970Z,101862.09
2022-09-01T03:48:19.425Z,101867.69
2022-09-01T03:50:47.384Z,101868.72
2022-09-01T03:53:17.810Z,101869.94
2022-09-01T03:55:46.627Z,101870.88
2022-09-01T03:58:18.990Z,101866.81
2022-09-01T04:00:49.410Z,101872.91
2022-09-01T04:03:28.778Z,101868.19
2022-09-01T04:05:59.249Z,101870.88
2022-09-01T04:08:32.520Z,101872.06
2022-09-01T04:11:05.384Z,101869.53
2022-09-01T04:13:38.116Z,101870.53
2022-09-01T04:16:10.783Z,101874.25
2022-09-01T04:18:40.129Z,101876.84
2022-09-01T04:21:08.177Z,101878.72
2022-09-01T04:23:37.069Z,101875.66
2022-09-01T04:26:10.465Z,101873.59
2022-09-01T04:28:45.947Z,101879.56
2022-09-01T04:31:19.056Z,101872.78
2022-09-01T04:33:52.777Z,101873.66
2022-09-01T04:36:23.645Z,101884.66
2022-09-01T04:38:56.143Z,101879.09
2022-09-01T04:41:25.855Z,101879.75
2022-09-01T04:43:56.976Z,101884.00
2022-09-01T04:46:29.501Z,101884.19
2022-09-01T04:48:57.650Z,101886.41
2022-09-01T04:51:28.019Z,101884.53
2022-09-01T04:53:57.430Z,101885.56
2022-09-01T04:56:26.000Z,101893.03
2022-09-01T04:58:56.688Z,101890.63
2022-09-01T05:01:26.206Z,101891.75
2022-09-01T05:04:01.582Z,101895.13
2022-09-01T05:06:34.643Z,101889.91
2022-09-01T05:09:01.396Z,101896.66
2022-09-01T05:11:28.135Z,101891.88
2022-09-01T05:13:57.658Z,101886.38
2022-09-01T05:16:25.825Z,101893.69
2022-09-01T05:18:54.223Z,101894.59
2022-09-01T05:21:24.693Z,101885.81
2022-09-01T05:23:51.916Z,101883.94
2022-09-01T05:26:26.200Z,101887.03
2022-09-01T05:28:56.466Z,101890.59
2022-09-01T05:31:25.537Z,101892.66
2022-09-01T05:33:52.196Z,101887.94
2022-09-01T05:36:23.006Z,101891.31
2022-09-01T05:38:51.078Z,101894.41
2022-09-01T05:41:19.507Z,101890.84
2022-09-01T05:43:50.430Z,101892.72
2022-09-01T05:46:20.699Z,101889.53
2022-09-01T05:48:49.693Z,101892.63
2022-09-01T05:51:43.366Z,101894.13
2022-09-01T05:54:12.095Z,101896.31
2022-09-01T05:56:43.575Z,101894.47
2022-09-01T05:59:28.389Z,101887.84
2022-09-01T06:01:56.184Z,101897.34
2022-09-01T06:04:27.812Z,101887.19
2022-09-01T06:07:06.728Z,101885.66
2022-09-01T06:09:39.825Z,101887.72
2022-09-01T06:12:08.480Z,101891.78
2022-09-01T06:14:35.141Z,101892.63
2022-09-01T06:17:03.238Z,101895.97
2022-09-01T06:19:34.816Z,101892.47
2022-09-01T06:22:04.203Z,101891.94
2022-09-01T06:24:30.838Z,101890.91
2022-09-01T06:26:57.746Z,101889.59
2022-09-01T06:29:25.406Z,101892.63
2022-09-01T06:31:52.900Z,101898.75
2022-09-01T06:34:20.462Z,101897.91
2022-09-01T06:36:49.567Z,101901.66
2022-09-01T06:39:22.368Z,101904.78
2022-09-01T06:41:52.909Z,101902.09
2022-09-01T06:44:23.090Z,101902.38
2022-09-01T06:46:53.484Z,101913.00
2022-09-01T06:49:21.737Z,101910.84
2022-09-01T06:51:51.790Z,101917.66
2022-09-01T06:54:21.290Z,101914.28
2022-09-01T06:56:51.532Z,101917.34
2022-09-01T06:59:35.247Z,101914.63
2022-09-01T07:02:04.837Z,101921.97
2022-09-01T07:04:32.534Z,101917.72
2022-09-01T07:07:53.081Z,101920.81
2022-09-01T07:10:05.756Z,101920.16
2022-09-01T07:12:35.235Z,101928.19
2022-09-01T07:17:52.237Z,101923.09
2022-09-01T07:20:25.408Z,101926.78
2022-09-01T07:23:10.007Z,101932.50
2022-09-01T07:26:00.979Z,101924.94
2022-09-01T07:28:37.616Z,101925.16
2022-09-01T07:33:55.703Z,101931.22
2022-09-01T07:45:27.899Z,101932.41
2022-09-01T07:47:55.531Z,101932.13
2022-09-01T07:50:39.801Z,101929.38
2022-09-01T07:53:08.572Z,101929.53
2022-09-01T07:55:35.328Z,101927.97
2022-09-01T07:58:01.967Z,101935.59
2022-09-01T08:00:31.731Z,101926.63
2022-09-01T08:02:59.083Z,101924.09
2022-09-01T08:05:27.294Z,101930.56
2022-09-01T08:07:54.762Z,101929.88
2022-09-01T08:10:21.844Z,101928.81
2022-09-01T08:12:56.260Z,101928.94
2022-09-01T08:15:41.093Z,101930.28
2022-09-01T08:18:14.366Z,101935.88
2022-09-01T08:20:47.393Z,101928.78
2022-09-01T08:23:19.913Z,101931.63
2022-09-01T08:25:47.789Z,101925.84
2022-09-01T08:28:15.747Z,101931.28
2022-09-01T08:30:49.077Z,101934.53
2022-09-01T08:33:19.495Z,101931.16
2022-09-01T08:35:49.109Z,101933.13
2022-09-01T08:38:16.474Z,101941.31
2022-09-01T08:40:51.521Z,101930.19
2022-09-01T08:43:34.744Z,101928.09
2022-09-01T08:46:30.608Z,101930.28
2022-09-01T08:51:52.431Z,101931.94
2022-09-01T08:54:37.425Z,101929.66
2022-09-01T08:57:23.306Z,101931.16
2022-09-01T08:59:50.269Z,101926.44
2022-09-01T09:02:46.158Z,101924.09
2022-09-01T09:05:36.877Z,101920.59
2022-09-01T09:08:34.330Z,101922.78
2022-09-01T09:11:07.027Z,101926.25
2022-09-01T09:14:07.232Z,101926.63
2022-09-01T09:16:42.638Z,101915.91
2022-09-01T09:19:13.006Z,101921.28
2022-09-01T09:21:42.366Z,101924.06
2022-09-01T09:24:08.951Z,101927.25
2022-09-01T09:26:42.946Z,101925.09
2022-09-01T09:29:09.825Z,101923.56
2022-09-01T09:31:46.012Z,101917.13
2022-09-01T09:34:34.483Z,101916.63
2022-09-01T09:37:17.612Z,101910.47
2022-09-01T09:39:44.733Z,101909.19
2022-09-01T09:42:15.235Z,101907.41
2022-09-01T09:44:51.097Z,101903.13
2022-09-01T09:47:43.473Z,101905.72
2022-09-01T09:50:23.008Z,101902.63
2022-09-01T09:52:51.960Z,101904.66
2022-09-01T09:55:24.858Z,101904.72
2022-09-01T09:57:56.125Z,101906.16
2022-09-01T10:00:34.197Z,101900.50
2022-09-01T10:03:18.558Z,101904.72
2022-09-01T10:05:53.571Z,101903.19
2022-09-01T10:08:37.402Z,101907.44
2022-09-01T10:11:06.661Z,101903.47
2022-09-01T10:13:36.632Z,101908.59
2022-09-01T10:16:10.394Z,101905.09
2022-09-01T10:18:41.651Z,101902.53
2022-09-01T10:21:25.882Z,101896.22
2022-09-01T10:23:53.228Z,101896.16
2022-09-01T10:26:38.257Z,101897.97
2022-09-01T10:29:25.662Z,101900.06
2022-09-01T10:32:14.809Z,101891.13
2022-09-01T10:34:43.542Z,101887.22
2022-09-01T10:37:15.940Z,101892.50
2022-09-01T10:40:12.893Z,101893.69
2022-09-01T10:42:48.342Z,101886.63
2022-09-01T10:45:38.178Z,101894.50
2022-09-01T10:48:30.692Z,101887.53
2022-09-01T10:51:12.700Z,101880.97
2022-09-01T10:53:49.543Z,101878.75
2022-09-01T10:56:51.869Z,101876.31
2022-09-01T10:59:32.058Z,101883.22
2022-09-01T11:02:27.547Z,101887.16
2022-09-01T11:04:55.000Z,101883.59
2022-09-01T11:07:38.852Z,101885.28
2022-09-01T11:10:40.010Z,101880.13
2022-09-01T11:13:36.397Z,101885.19
2022-09-01T11:16:52.405Z,101885.41
2022-09-01T11:19:39.745Z,101886.34
2022-09-01T11:22:27.081Z,101879.63
2022-09-01T11:25:12.464Z,101882.06
2022-09-01T11:27:48.369Z,101878.69
2022-09-01T11:30:36.709Z,101876.66
2022-09-01T11:33:31.200Z,101876.19
2022-09-01T11:36:12.748Z,101876.97
2022-09-01T11:39:05.203Z,101877.91
2022-09-01T11:41:59.530Z,101874.81
2022-09-01T11:45:00.081Z,101870.97
2022-09-01T11:47:35.711Z,101870.22
2022-09-01T11:50:04.418Z,101871.84
2022-09-01T11:52:35.978Z,101866.06
2022-09-01T11:55:07.322Z,101867.59
2022-09-01T11:57:39.577Z,101866.94
2022-09-01T12:00:12.116Z,101867.88
2022-09-01T12:02:50.085Z,101861.34
2022-09-01T12:05:28.347Z,101861.66
2022-09-01T12:07:56.464Z,101868.44
2022-09-01T12:10:32.492Z,101863.03
2022-09-01T12:13:03.590Z,101864.44
2022-09-01T12:15:30.829Z,101854.59
2022-09-01T12:18:19.971Z,101855.91
2022-09-01T12:23:40.307Z,101847.59
2022-09-01T12:26:14.797Z,101844.00
2022-09-01T12:28:42.475Z,101845.47
2022-09-01T12:31:15.731Z,101848.81
2022-09-01T12:33:46.398Z,101843.53
2022-09-01T12:36:37.369Z,101841.25
2022-09-01T12:39:24.724Z,101840.69
2022-09-01T12:42:05.448Z,101843.91
2022-09-01T12:44:54.854Z,101837.97
2022-09-01T12:47:36.664Z,101838.69
2022-09-01T12:50:26.510Z,101842.03
2022-09-01T12:53:02.089Z,101841.63
2022-09-01T12:55:49.739Z,101847.88
2022-09-01T12:58:25.586Z,101837.91
2022-09-01T13:01:03.239Z,101835.94
2022-09-01T13:03:30.605Z,101836.84
2022-09-01T13:05:59.971Z,101830.75
2022-09-01T13:08:33.178Z,101826.31
2022-09-01T13:11:14.361Z,101821.56
2022-09-01T13:13:42.377Z,101814.47
2022-09-01T13:16:13.013Z,101815.47
2022-09-01T13:21:30.111Z,101813.31
2022-09-01T13:23:57.334Z,101820.53
2022-09-01T13:26:24.150Z,101813.81
2022-09-01T13:28:51.628Z,101808.31
2022-09-01T13:31:34.494Z,101807.47
2022-09-01T13:34:10.445Z,101809.16
2022-09-01T13:36:49.084Z,101806.81
2022-09-01T13:39:19.251Z,101805.06
2022-09-01T13:41:47.624Z,101808.78
2022-09-01T13:44:14.485Z,101804.19
2022-09-01T13:50:04.949Z,101800.72
2022-09-01T13:52:15.179Z,101795.94
2022-09-01T13:54:44.364Z,101801.41
2022-09-01T13:57:16.341Z,101800.53
2022-09-01T13:59:43.095Z,101808.78
2022-09-01T14:02:10.931Z,101797.22
2022-09-01T14:04:37.894Z,101799.69
2022-09-01T14:07:04.676Z,101797.03
2022-09-01T14:09:31.328Z,101802.72
2022-09-01T14:11:57.980Z,101799.00
2022-09-01T14:14:25.066Z,101802.16
2022-09-01T14:16:52.192Z,101790.72
2022-09-01T14:19:18.997Z,101783.63
2022-09-01T14:21:47.239Z,101785.97
2022-09-01T14:24:13.964Z,101782.78
2022-09-01T14:26:41.483Z,101784.22
2022-09-01T14:29:08.377Z,101780.31
2022-09-01T14:31:36.259Z,101787.88
2022-09-01T14:34:02.899Z,101777.72
2022-09-01T14:36:29.958Z,101783.47
2022-09-01T14:38:56.902Z,101787.59
2022-09-01T14:41:26.747Z,101780.66
2022-09-01T14:44:02.333Z,101783.84
2022-09-01T14:46:31.049Z,101779.81
2022-09-01T14:48:57.736Z,101779.88
2022-09-01T14:52:10.129Z,101775.75
2022-09-01T14:54:14.325Z,101775.78
2022-09-01T14:56:41.882Z,101769.09
2022-09-01T14:59:09.494Z,101774.00
2022-09-01T15:01:36.557Z,101763.28
2022-09-01T15:04:03.568Z,101768.53
2022-09-01T15:06:30.315Z,101767.47
2022-09-01T15:08:56.937Z,101767.25
2022-09-01T15:11:23.572Z,101769.16
2022-09-01T15:13:53.176Z,101771.88
2022-09-01T15:16:23.311Z,101763.47
2022-09-01T15:18:50.676Z,101762.63
2022-09-01T15:21:32.108Z,101760.56
2022-09-01T15:23:59.300Z,101766.06
2022-09-01T15:26:26.495Z,101759.28
2022-09-01T15:28:53.935Z,101766.25
2022-09-01T15:31:28.612Z,101770.03
2022-09-01T15:34:02.100Z,101760.59
2022-09-01T15:36:30.251Z,101770.22
2022-09-01T15:38:57.572Z,101766.47
2022-09-01T15:41:27.215Z,101771.09
2022-09-01T15:43:54.855Z,101769.19
2022-09-01T15:46:21.924Z,101767.31
2022-09-01T15:48:49.111Z,101759.31
2022-09-01T15:51:24.713Z,101756.41
2022-09-01T15:53:54.593Z,101761.69
2022-09-01T15:56:21.681Z,101756.66
2022-09-01T15:59:00.372Z,101763.78
2022-09-01T16:01:30.428Z,101756.25
2022-09-01T16:03:57.133Z,101759.13
2022-09-01T16:06:24.007Z,101762.31
2022-09-01T16:08:54.488Z,101754.72
2022-09-01T16:11:25.924Z,101759.13
2022-09-01T16:13:54.221Z,101757.63
2022-09-01T16:16:48.923Z,101753.84
2022-09-01T16:19:30.311Z,101761.59
2022-09-01T16:21:56.906Z,101761.38
2022-09-01T16:24:24.190Z,101762.16
2022-09-01T16:26:52.425Z,101765.50
2022-09-01T16:29:32.667Z,101760.25
2022-09-01T16:31:59.385Z,101768.03
2022-09-01T16:34:28.391Z,101763.78
2022-09-01T16:37:07.340Z,101759.78
2022-09-01T16:39:54.162Z,101757.44
2022-09-01T16:42:26.275Z,101751.16
2022-09-01T16:44:52.796Z,101753.88
2022-09-01T16:47:37.929Z,101753.41
2022-09-01T16:50:15.182Z,101758.91
2022-09-01T16:52:57.856Z,101757.88
2022-09-01T16:55:42.839Z,101764.13
2022-09-01T16:58:29.153Z,101754.03
2022-09-01T17:01:10.962Z,101752.56
2022-09-01T17:04:09.834Z,101751.28
2022-09-01T17:06:52.229Z,101760.06
2022-09-01T17:09:30.755Z,101759.97
2022-09-01T17:12:27.753Z,101758.44
2022-09-01T17:15:05.155Z,101763.88
2022-09-01T17:17:40.154Z,101758.22
2022-09-01T17:20:08.159Z,101766.97
2022-09-01T17:22:37.151Z,101765.22
2022-09-01T17:25:09.762Z,101767.94
2022-09-01T17:27:59.443Z,101776.31
2022-09-01T17:30:26.306Z,101773.59
2022-09-01T17:33:05.934Z,101785.47
2022-09-01T17:35:58.523Z,101782.94
2022-09-01T17:38:40.249Z,101783.19
2022-09-01T17:41:34.770Z,101785.44
2022-09-01T17:44:56.750Z,101794.44
2022-09-01T17:47:51.236Z,101795.72
2022-09-01T17:50:39.367Z,101797.19
2022-09-01T17:53:46.404Z,101796.75
2022-09-01T17:56:22.162Z,101798.63
2022-09-01T17:59:24.322Z,101804.59
2022-09-01T18:02:17.140Z,101803.38
2022-09-01T18:05:00.689Z,101807.13
2022-09-01T18:07:46.255Z,101809.59
2022-09-01T18:10:17.662Z,101809.59
2022-09-01T18:12:45.256Z,101804.69
2022-09-01T18:15:19.899Z,101815.63
2022-09-01T18:18:25.010Z,101810.88
2022-09-01T18:20:59.347Z,101811.13
2022-09-01T18:23:30.033Z,101819.13
2022-09-01T18:26:09.839Z,101823.16
2022-09-01T18:28:36.953Z,101818.09
2022-09-01T18:31:03.614Z,101820.81
2022-09-01T18:33:43.075Z,101823.53
2022-09-01T18:36:29.208Z,101824.09
2022-09-01T18:39:15.812Z,101824.09
2022-09-01T18:41:51.543Z,101826.00
2022-09-01T18:44:42.783Z,101830.03
2022-09-01T18:47:15.332Z,101831.00
2022-09-01T18:50:07.356Z,101839.09
2022-09-01T18:52:56.700Z,101833.66
2022-09-01T18:55:46.249Z,101838.09
2022-09-01T18:58:46.789Z,101840.25
2022-09-01T19:01:16.934Z,101838.50
2022-09-01T19:03:53.909Z,101840.41
2022-09-01T19:06:26.330Z,101838.03
2022-09-01T19:08:57.121Z,101837.03
2022-09-01T19:11:37.617Z,101845.19
2022-09-01T19:14:10.910Z,101843.69
2022-09-01T19:16:55.965Z,101851.19
2022-09-01T19:19:46.675Z,101854.50
2022-09-01T19:22:18.665Z,101845.81
2022-09-01T19:25:21.245Z,101841.00
2022-09-01T19:27:57.401Z,101848.09
2022-09-01T19:30:24.020Z,101842.56
2022-09-01T19:32:51.096Z,101845.88
2022-09-01T19:35:18.762Z,101848.28
2022-09-01T19:37:50.640Z,101852.25
2022-09-01T19:40:27.866Z,101853.81
2022-09-01T19:43:07.454Z,101847.47
2022-09-01T19:46:08.014Z,101845.78
2022-09-01T19:48:58.561Z,101851.22
2022-09-01T19:51:33.427Z,101851.22
2022-09-01T19:54:09.197Z,101849.34
2022-09-01T19:56:49.626Z,101852.31
2022-09-01T19:59:27.164Z,101848.94
2022-09-01T20:02:05.296Z,101847.56
2022-09-01T20:04:57.260Z,101852.59
2022-09-01T20:07:26.557Z,101850.75
2022-09-01T20:10:18.415Z,101861.16
2022-09-01T20:13:11.143Z,101857.69
2022-09-01T20:15:53.614Z,101848.22
2022-09-01T20:18:25.829Z,101856.38
2022-09-01T20:20:52.707Z,101855.72
2022-09-01T20:23:35.883Z,101857.03
2022-09-01T20:26:13.055Z,101853.38
2022-09-01T20:28:51.575Z,101854.59
2022-09-01T20:31:28.310Z,101851.59
2022-09-01T20:34:19.856Z,101852.19
2022-09-01T20:37:06.304Z,101853.47
2022-09-01T20:40:01.084Z,101852.72
2022-09-01T20:43:01.591Z,101854.59
2022-09-01T20:45:29.464Z,101855.72
2022-09-01T20:48:03.022Z,101852.34
2022-09-01T20:50:43.106Z,101856.66
2022-09-01T20:53:28.769Z,101860.81
2022-09-01T20:56:01.635Z,101860.88
2022-09-01T20:58:36.810Z,101858.56
2022-09-01T21:01:34.316Z,101870.47
2022-09-01T21:04:31.789Z,101864.91
2022-09-01T21:07:21.775Z,101864.63
2022-09-01T21:10:09.658Z,101852.28
2022-09-01T21:12:52.009Z,101862.44
2022-09-01T21:15:31.090Z,101864.81
2022-09-01T21:18:03.557Z,101863.13
2022-09-01T21:20:55.301Z,101871.56
2022-09-01T21:23:22.398Z,101863.97
2022-09-01T21:25:49.798Z,101876.03
2022-09-01T21:28:19.977Z,101862.88
2022-09-01T21:30:51.985Z,101866.28
2022-09-01T21:33:18.704Z,101869.41
2022-09-01T21:35:45.288Z,101861.16
2022-09-01T21:38:11.882Z,101862.09
2022-09-01T21:40:38.664Z,101856.38
2022-09-01T21:43:09.002Z,101863.38
2022-09-01T21:45:37.980Z,101863.56
2022-09-01T21:48:05.918Z,101857.00
2022-09-01T21:50:33.952Z,101858.16
2022-09-01T21:53:01.367Z,101863.84
2022-09-01T21:55:28.605Z,101865.84
2022-09-01T21:57:55.517Z,101861.13
2022-09-01T22:00:25.946Z,101859.28
2022-09-01T22:02:53.543Z,101872.06
2022-09-01T22:05:20.936Z,101864.19
2022-09-01T22:07:48.016Z,101860.25
2022-09-01T22:10:18.609Z,101866.53
2022-09-01T22:12:47.173Z,101862.53
2022-09-01T22:15:17.816Z,101862.63
2022-09-01T22:17:45.166Z,101855.78
2022-09-01T22:20:14.863Z,101859.41
2022-09-01T22:22:41.545Z,101860.50
2022-09-01T22:25:11.429Z,101856.94
2022-09-01T22:27:38.398Z,101854.88
2022-09-01T22:30:06.165Z,101850.06
2022-09-01T22:32:37.875Z,101844.81
2022-09-01T22:35:10.140Z,101849.41
2022-09-01T22:37:38.194Z,101853.75
2022-09-01T22:40:06.625Z,101849.88
2022-09-01T22:42:33.335Z,101853.16
2022-09-01T22:44:59.934Z,101853.69
2022-09-01T22:47:26.530Z,101849.44
2022-09-01T22:49:54.718Z,101842.13
2022-09-01T22:52:21.465Z,101850.97
2022-09-01T22:54:50.387Z,101849.59
2022-09-01T22:57:17.241Z,101848.06
2022-09-01T22:59:43.861Z,101847.47
2022-09-01T23:02:10.739Z,101839.84
2022-09-01T23:04:38.734Z,101843.56
2022-09-01T23:07:07.137Z,101842.03
2022-09-01T23:09:34.707Z,101843.53
2022-09-01T23:12:01.475Z,101838.44
2022-09-01T23:14:28.867Z,101843.34
2022-09-01T23:16:55.722Z,101845.59
2022-09-01T23:19:23.732Z,101843.28
2022-09-01T23:21:51.329Z,101841.41
2022-09-01T23:24:18.399Z,101843.56
2022-09-01T23:26:47.560Z,101846.25
2022-09-01T23:29:14.292Z,101835.44
2022-09-01T23:31:41.508Z,101833.47
2022-09-01T23:34:08.734Z,101833.47
2022-09-01T23:36:36.688Z,101838.34
2022-09-01T23:39:04.755Z,101827.16
2022-09-01T23:41:33.319Z,101831.41
2022-09-01T23:44:03.477Z,101832.09
2022-09-01T23:46:36.989Z,101825.00
2022-09-01T23:49:05.051Z,101829.72
2022-09-01T23:51:31.826Z,101823.59
2022-09-01T23:53:59.112Z,101824.81
2022-09-01T23:56:27.799Z,101829.94
2022-09-01T23:58:54.788Z,101822.28
